sensor_id;sensor_type;location;lat;lon;timestamp;pressure;altitude;pressure_sealevel;temperature;humidity
23059;BME280;30585;51.502;7.218;2022-09-23T00:01:13;152113.03;;;7.59;100.00
23059;BME280;30585;51.502;7.218;2022-09-23T00:03:42;152084.66;;;7.47;100.00
23059;BME280;30585;51.502;7.218;2022-09-23T00:06:16;152111.75;;;7.58;100.00
23059;BME280;30585;51.502;7.218;2022-09-23T00:08:45;152125.94;;;7.64;100.00
23059;BME280;30585;51.502;7.218;2022-09-23T00:11:16;152132.38;;;7.67;100.00
23059;BME280;30585;51.502;7.218;2022-09-23T00:13:46;152124.63;;;7.63;100.00
23059;BME280;30585;51.502;7.218;2022-09-23T00:16:16;152109.19;;;7.57;100.00
23059;BME280;30585;51.502;7.218;2022-09-23T00:18:44;152114.34;;;7.59;100.00
23059;BME280;30585;51.502;7.218;2022-09-23T00:21:13;152111.75;;;7.58;100.00
23059;BME280;30585;51.502;7.218;2022-09-23T00:23:42;152084.66;;;7.47;100.00
23059;BME280;30585;51.502;7.218;2022-09-23T00:26:11;152110.44;;;7.58;100.00
23059;BME280;30585;51.502;7.218;2022-09-23T00:28:39;152069.19;;;7.41;100.00
23059;BME280;30585;51.502;7.218;2022-09-23T00:31:09;152096.25;;;7.52;100.00
23059;BME280;30585;51.502;7.218;2022-09-23T00:33:38;152073.03;;;7.43;100.00
23059;BME280;30585;51.502;7.218;2022-09-23T00:36:08;152085.97;;;7.48;100.00
23059;BME280;30585;51.502;7.218;2022-09-23T00:38:38;152098.84;;;7.53;100.00
23059;BME280;30585;51.502;7.218;2022-09-23T00:41:05;152100.16;;;7.54;100.00
23059;BME280;30585;51.502;7.218;2022-09-23T00:43:38;152109.19;;;7.57;100.00
23059;BME280;30585;51.502;7.218;2022-09-23T00:46:08;152107.84;;;7.57;100.00
23059;BME280;30585;51.502;7.218;2022-09-23T00:48:38;152091.13;;;7.50;100.00
23059;BME280;30585;51.502;7.218;2022-09-23T00:51:10;152107.84;;;7.57;100.00
23059;BME280;30585;51.502;7.218;2022-09-23T00:53:40;152105.28;;;7.56;100.00
23059;BME280;30585;51.502;7.218;2022-09-23T00:56:09;152104.00;;;7.55;100.00
23059;BME280;30585;51.502;7.218;2022-09-23T00:58:41;152106.59;;;7.56;100.00
23059;BME280;30585;51.502;7.218;2022-09-23T01:01:10;152073.03;;;7.43;100.00
23059;BME280;30585;51.502;7.218;2022-09-23T01:03:40;152100.16;;;7.54;100.00
23059;BME280;30585;51.502;7.218;2022-09-23T01:06:11;152087.22;;;7.48;100.00
23059;BME280;30585;51.502;7.218;2022-09-23T01:08:40;152078.22;;;7.45;100.00
23059;BME280;30585;51.502;7.218;2022-09-23T01:11:16;152119.47;;;7.61;100.00
23059;BME280;30585;51.502;7.218;2022-09-23T01:13:54;152092.41;;;7.51;100.00
23059;BME280;30585;51.502;7.218;2022-09-23T01:16:30;152102.75;;;7.55;100.00
23059;BME280;30585;51.502;7.218;2022-09-23T01:19:07;152120.78;;;7.62;100.00
23059;BME280;30585;51.502;7.218;2022-09-23T01:21:44;152096.25;;;7.52;100.00
23059;BME280;30585;51.502;7.218;2022-09-23T01:24:41;152096.25;;;7.52;100.00
23059;BME280;30585;51.502;7.218;2022-09-23T01:27:39;152082.06;;;7.46;100.00
23059;BME280;30585;51.502;7.218;2022-09-23T01:30:14;152049.84;;;7.33;100.00
23059;BME280;30585;51.502;7.218;2022-09-23T01:32:56;152047.25;;;7.32;100.00
23059;BME280;30585;51.502;7.218;2022-09-23T01:35:29;152027.94;;;7.25;100.00
23059;BME280;30585;51.502;7.218;2022-09-23T01:38:11;152018.94;;;7.21;100.00
23059;BME280;30585;51.502;7.218;2022-09-23T01:40:48;152012.44;;;7.18;100.00
23059;BME280;30585;51.502;7.218;2022-09-23T01:43:22;152034.38;;;7.27;100.00
23059;BME280;30585;51.502;7.218;2022-09-23T01:45:56;152042.13;;;7.30;100.00
23059;BME280;30585;51.502;7.218;2022-09-23T01:48:31;152015.03;;;7.20;100.00
23059;BME280;30585;51.502;7.218;2022-09-23T01:51:04;152013.75;;;7.19;100.00
23059;BME280;30585;51.502;7.218;2022-09-23T01:53:38;152015.03;;;7.20;100.00
23059;BME280;30585;51.502;7.218;2022-09-23T01:56:12;151986.66;;;7.08;100.00
23059;BME280;30585;51.502;7.218;2022-09-23T01:58:47;151995.66;;;7.12;100.00
23059;BME280;30585;51.502;7.218;2022-09-23T02:01:26;152015.03;;;7.20;100.00
23059;BME280;30585;51.502;7.218;2022-09-23T02:04:00;151986.66;;;7.08;100.00
23059;BME280;30585;51.502;7.218;2022-09-23T02:06:34;152027.94;;;7.25;100.00
23059;BME280;30585;51.502;7.218;2022-09-23T02:09:06;152013.75;;;7.19;100.00
23059;BME280;30585;51.502;7.218;2022-09-23T02:11:39;151995.66;;;7.12;100.00
23059;BME280;30585;51.502;7.218;2022-09-23T02:14:15;152016.34;;;7.20;100.00
23059;BME280;30585;51.502;7.218;2022-09-23T02:16:48;151985.38;;;7.08;100.00
23059;BME280;30585;51.502;7.218;2022-09-23T02:19:22;151998.25;;;7.13;100.00
23059;BME280;30585;51.502;7.218;2022-09-23T02:21:58;152000.84;;;7.14;100.00
23059;BME280;30585;51.502;7.218;2022-09-23T02:24:30;151984.06;;;7.07;100.00
23059;BME280;30585;51.502;7.218;2022-09-23T02:27:03;151999.56;;;7.13;100.00
23059;BME280;30585;51.502;7.218;2022-09-23T02:29:37;152004.75;;;7.15;100.00
23059;BME280;30585;51.502;7.218;2022-09-23T02:32:13;152013.75;;;7.19;100.00
23059;BME280;30585;51.502;7.218;2022-09-23T02:34:45;152026.63;;;7.24;100.00
23059;BME280;30585;51.502;7.218;2022-09-23T02:37:25;152003.44;;;7.15;100.00
23059;BME280;30585;51.502;7.218;2022-09-23T02:40:01;152038.22;;;7.29;100.00
23059;BME280;30585;51.502;7.218;2022-09-23T02:42:41;152036.97;;;7.28;100.00
23059;BME280;30585;51.502;7.218;2022-09-23T02:45:12;152045.97;;;7.32;100.00
23059;BME280;30585;51.502;7.218;2022-09-23T02:47:41;152058.84;;;7.37;100.00
23059;BME280;30585;51.502;7.218;2022-09-23T02:50:12;152016.34;;;7.20;100.00
23059;BME280;30585;51.502;7.218;2022-09-23T02:52:39;152022.78;;;7.23;100.00
23059;BME280;30585;51.502;7.218;2022-09-23T02:55:10;152049.84;;;7.33;100.00
23059;BME280;30585;51.502;7.218;2022-09-23T02:57:38;152035.66;;;7.28;100.00
23059;BME280;30585;51.502;7.218;2022-09-23T03:00:07;152060.19;;;7.38;100.00
23059;BME280;30585;51.502;7.218;2022-09-23T03:02:54;152007.31;;;7.16;100.00
23059;BME280;30585;51.502;7.218;2022-09-23T03:05:29;152039.56;;;7.29;100.00
23059;BME280;30585;51.502;7.218;2022-09-23T03:08:11;152039.56;;;7.29;100.00
23059;BME280;30585;51.502;7.218;2022-09-23T03:10:52;152043.41;;;7.31;100.00
23059;BME280;30585;51.502;7.218;2022-09-23T03:13:29;152029.22;;;7.25;100.00
23059;BME280;30585;51.502;7.218;2022-09-23T03:16:04;152006.00;;;7.16;100.00
23059;BME280;30585;51.502;7.218;2022-09-23T03:18:39;152029.22;;;7.25;100.00
23059;BME280;30585;51.502;7.218;2022-09-23T03:21:13;152035.66;;;7.28;100.00
23059;BME280;30585;51.502;7.218;2022-09-23T03:23:43;152035.66;;;7.28;100.00
23059;BME280;30585;51.502;7.218;2022-09-23T03:26:17;152031.78;;;7.26;100.00
23059;BME280;30585;51.502;7.218;2022-09-23T03:28:47;152036.97;;;7.28;100.00
23059;BME280;30585;51.502;7.218;2022-09-23T03:31:16;152036.97;;;7.28;100.00
23059;BME280;30585;51.502;7.218;2022-09-23T03:33:47;152026.63;;;7.24;100.00
23059;BME280;30585;51.502;7.218;2022-09-23T03:36:21;152018.94;;;7.21;100.00
23059;BME280;30585;51.502;7.218;2022-09-23T03:39:11;152038.22;;;7.29;100.00
23059;BME280;30585;51.502;7.218;2022-09-23T03:41:43;152027.94;;;7.25;100.00
23059;BME280;30585;51.502;7.218;2022-09-23T03:44:16;152016.34;;;7.20;100.00
23059;BME280;30585;51.502;7.218;2022-09-23T03:46:44;151957.00;;;6.96;100.00
23059;BME280;30585;51.502;7.218;2022-09-23T03:49:16;151969.94;;;7.01;100.00
23059;BME280;30585;51.502;7.218;2022-09-23T03:51:46;151960.88;;;6.98;100.00
23059;BME280;30585;51.502;7.218;2022-09-23T03:54:14;151897.75;;;6.73;100.00
23059;BME280;30585;51.502;7.218;2022-09-23T03:56:45;151905.44;;;6.76;100.00
23059;BME280;30585;51.502;7.218;2022-09-23T03:59:14;151931.22;;;6.86;100.00
23059;BME280;30585;51.502;7.218;2022-09-23T04:01:42;151918.38;;;6.81;100.00
23059;BME280;30585;51.502;7.218;2022-09-23T04:04:11;151931.22;;;6.86;100.00
23059;BME280;30585;51.502;7.218;2022-09-23T04:06:39;151906.78;;;6.76;100.00
23059;BME280;30585;51.502;7.218;2022-09-23T04:09:08;151920.94;;;6.82;100.00
23059;BME280;30585;51.502;7.218;2022-09-23T04:11:36;151919.63;;;6.81;100.00
23059;BME280;30585;51.502;7.218;2022-09-23T04:14:04;151869.38;;;6.61;100.00
23059;BME280;30585;51.502;7.218;2022-09-23T04:16:32;151892.59;;;6.70;100.00
23059;BME280;30585;51.502;7.218;2022-09-23T04:19:00;151878.41;;;6.65;100.00
23059;BME280;30585;51.502;7.218;2022-09-23T04:21:27;151851.34;;;6.54;100.00
23059;BME280;30585;51.502;7.218;2022-09-23T04:23:57;151869.38;;;6.61;100.00
23059;BME280;30585;51.502;7.218;2022-09-23T04:26:26;151877.09;;;6.64;100.00
23059;BME280;30585;51.502;7.218;2022-09-23T04:28:54;151847.47;;;6.52;100.00
23059;BME280;30585;51.502;7.218;2022-09-23T04:31:22;151850.03;;;6.53;100.00
23059;BME280;30585;51.502;7.218;2022-09-23T04:33:51;151797.22;;;6.32;100.00
23059;BME280;30585;51.502;7.218;2022-09-23T04:36:19;151797.22;;;6.32;100.00
23059;BME280;30585;51.502;7.218;2022-09-23T04:38:48;151821.69;;;6.42;100.00
23059;BME280;30585;51.502;7.218;2022-09-23T04:41:17;151815.25;;;6.39;100.00
23059;BME280;30585;51.502;7.218;2022-09-23T04:43:47;151772.72;;;6.22;100.00
23059;BME280;30585;51.502;7.218;2022-09-23T04:46:15;151795.91;;;6.32;100.00
23059;BME280;30585;51.502;7.218;2022-09-23T04:48:43;151776.63;;;6.24;100.00
23059;BME280;30585;51.502;7.218;2022-09-23T04:51:12;151789.47;;;6.29;100.00
23059;BME280;30585;51.502;7.218;2022-09-23T04:53:42;151797.22;;;6.32;100.00
23059;BME280;30585;51.502;7.218;2022-09-23T04:56:11;151806.25;;;6.36;100.00
23059;BME280;30585;51.502;7.218;2022-09-23T04:58:40;151816.53;;;6.40;100.00
23059;BME280;30585;51.502;7.218;2022-09-23T05:01:10;151812.66;;;6.38;100.00
23059;BME280;30585;51.502;7.218;2022-09-23T05:03:38;151810.09;;;6.37;100.00
23059;BME280;30585;51.502;7.218;2022-09-23T05:06:06;151765.03;;;6.19;100.00
23059;BME280;30585;51.502;7.218;2022-09-23T05:08:35;151795.91;;;6.32;100.00
23059;BME280;30585;51.502;7.218;2022-09-23T05:11:03;151766.28;;;6.20;100.00
23059;BME280;30585;51.502;7.218;2022-09-23T05:13:34;151762.44;;;6.18;100.00
23059;BME280;30585;51.502;7.218;2022-09-23T05:16:04;151802.41;;;6.34;100.00
23059;BME280;30585;51.502;7.218;2022-09-23T05:18:36;151789.47;;;6.29;100.00
23059;BME280;30585;51.502;7.218;2022-09-23T05:21:08;151780.47;;;6.26;100.00
23059;BME280;30585;51.502;7.218;2022-09-23T05:23:37;151781.75;;;6.26;100.00
23059;BME280;30585;51.502;7.218;2022-09-23T05:26:07;151802.41;;;6.34;100.00
23059;BME280;30585;51.502;7.218;2022-09-23T05:28:35;151780.47;;;6.26;100.00
23059;BME280;30585;51.502;7.218;2022-09-23T05:31:06;151792.06;;;6.30;100.00
23059;BME280;30585;51.502;7.218;2022-09-23T05:33:37;151807.50;;;6.36;100.00
23059;BME280;30585;51.502;7.218;2022-09-23T05:36:05;151792.06;;;6.30;100.00
23059;BME280;30585;51.502;7.218;2022-09-23T05:38:33;151826.84;;;6.44;100.00
23059;BME280;30585;51.502;7.218;2022-09-23T05:41:03;151812.66;;;6.38;100.00
23059;BME280;30585;51.502;7.218;2022-09-23T05:43:32;151814.00;;;6.39;100.00
23059;BME280;30585;51.502;7.218;2022-09-23T05:46:01;151817.84;;;6.41;100.00
23059;BME280;30585;51.502;7.218;2022-09-23T05:48:36;151819.09;;;6.41;100.00
23059;BME280;30585;51.502;7.218;2022-09-23T05:51:05;151810.09;;;6.37;100.00
23059;BME280;30585;51.502;7.218;2022-09-23T05:53:36;151852.63;;;6.54;100.00
23059;BME280;30585;51.502;7.218;2022-09-23T05:56:04;151846.19;;;6.52;100.00
23059;BME280;30585;51.502;7.218;2022-09-23T05:58:32;151868.06;;;6.61;100.00
23059;BME280;30585;51.502;7.218;2022-09-23T06:01:08;151860.38;;;6.58;100.00
23059;BME280;30585;51.502;7.218;2022-09-23T06:03:37;151904.19;;;6.75;100.00
23059;BME280;30585;51.502;7.218;2022-09-23T06:06:05;151873.25;;;6.63;100.00
23059;BME280;30585;51.502;7.218;2022-09-23T06:08:33;151954.44;;;6.95;100.00
23059;BME280;30585;51.502;7.218;2022-09-23T06:11:03;151958.34;;;6.97;100.00
23059;BME280;30585;51.502;7.218;2022-09-23T06:13:33;151967.34;;;7.00;100.00
23059;BME280;30585;51.502;7.218;2022-09-23T06:16:04;151973.78;;;7.03;100.00
23059;BME280;30585;51.502;7.218;2022-09-23T06:18:33;152008.59;;;7.17;100.00
23059;BME280;30585;51.502;7.218;2022-09-23T06:21:03;152024.03;;;7.23;100.00
23059;BME280;30585;51.502;7.218;2022-09-23T06:23:31;152035.66;;;7.28;100.00
23059;BME280;30585;51.502;7.218;2022-09-23T06:26:04;152053.72;;;7.35;100.00
23059;BME280;30585;51.502;7.218;2022-09-23T06:28:34;152087.22;;;7.48;100.00
23059;BME280;30585;51.502;7.218;2022-09-23T06:31:04;152122.06;;;7.62;100.00
23059;BME280;30585;51.502;7.218;2022-09-23T06:33:38;152159.47;;;7.77;100.00
23059;BME280;30585;51.502;7.218;2022-09-23T06:36:09;152198.19;;;7.93;100.00
23059;BME280;30585;51.502;7.218;2022-09-23T06:38:38;152235.56;;;8.08;100.00
23059;BME280;30585;51.502;7.218;2022-09-23T06:41:06;152291.06;;;8.30;100.00
23059;BME280;30585;51.502;7.218;2022-09-23T06:43:34;152333.66;;;8.47;100.00
23059;BME280;30585;51.502;7.218;2022-09-23T06:46:03;152390.47;;;8.70;100.00
23059;BME280;30585;51.502;7.218;2022-09-23T06:48:33;152442.09;;;8.91;100.00
23059;BME280;30585;51.502;7.218;2022-09-23T06:51:03;152541.50;;;9.30;100.00
23059;BME280;30585;51.502;7.218;2022-09-23T06:53:34;152633.22;;;9.67;100.00
23059;BME280;30585;51.502;7.218;2022-09-23T06:56:04;152722.34;;;10.03;100.00
23059;BME280;30585;51.502;7.218;2022-09-23T06:58:34;152816.69;;;10.40;100.00
23059;BME280;30585;51.502;7.218;2022-09-23T07:01:05;152892.97;;;10.71;100.00
23059;BME280;30585;51.502;7.218;2022-09-23T07:03:34;152992.50;;;11.11;100.00
23059;BME280;30585;51.502;7.218;2022-09-23T07:06:02;153072.69;;;11.43;100.00
23059;BME280;30585;51.502;7.218;2022-09-23T07:08:31;153139.94;;;11.69;100.00
23059;BME280;30585;51.502;7.218;2022-09-23T07:11:03;153217.59;;;12.00;97.14
23059;BME280;30585;51.502;7.218;2022-09-23T07:13:32;153286.16;;;12.28;95.79
23059;BME280;30585;51.502;7.218;2022-09-23T07:16:00;153326.25;;;12.44;96.05
23059;BME280;30585;51.502;7.218;2022-09-23T07:18:29;153357.34;;;12.56;95.03
23059;BME280;30585;51.502;7.218;2022-09-23T07:21:07;153433.69;;;12.87;99.83
23059;BME280;30585;51.502;7.218;2022-09-23T07:23:35;153490.66;;;13.09;94.08
23059;BME280;30585;51.502;7.218;2022-09-23T07:26:05;153482.88;;;13.06;80.63
23059;BME280;30585;51.502;7.218;2022-09-23T07:28:34;153495.84;;;13.12;80.25
23059;BME280;30585;51.502;7.218;2022-09-23T07:31:05;153528.22;;;13.24;85.73
23059;BME280;30585;51.502;7.218;2022-09-23T07:33:34;153530.81;;;13.25;84.73
23059;BME280;30585;51.502;7.218;2022-09-23T07:36:07;153564.50;;;13.39;86.71
23059;BME280;30585;51.502;7.218;2022-09-23T07:38:36;153578.75;;;13.45;79.80
23059;BME280;30585;51.502;7.218;2022-09-23T07:41:14;153629.28;;;13.65;82.02
23059;BME280;30585;51.502;7.218;2022-09-23T07:43:43;153672.00;;;13.82;85.48
23059;BME280;30585;51.502;7.218;2022-09-23T07:46:13;153719.94;;;14.01;85.11
23059;BME280;30585;51.502;7.218;2022-09-23T07:48:42;153745.88;;;14.11;82.83
23059;BME280;30585;51.502;7.218;2022-09-23T07:51:12;153730.28;;;14.05;76.68
23059;BME280;30585;51.502;7.218;2022-09-23T07:53:40;153766.59;;;14.20;77.47
23059;BME280;30585;51.502;7.218;2022-09-23T07:56:07;153787.31;;;14.28;77.75
23059;BME280;30585;51.502;7.218;2022-09-23T07:58:38;153806.75;;;14.36;73.10
23059;BME280;30585;51.502;7.218;2022-09-23T08:01:07;153811.94;;;14.38;73.25
23059;BME280;30585;51.502;7.218;2022-09-23T08:03:36;153839.16;;;14.48;78.86
23059;BME280;30585;51.502;7.218;2022-09-23T08:06:05;153883.22;;;14.66;75.97
23059;BME280;30585;51.502;7.218;2022-09-23T08:08:33;153909.19;;;14.76;75.42
23059;BME280;30585;51.502;7.218;2022-09-23T08:11:02;153932.50;;;14.86;78.38
23059;BME280;30585;51.502;7.218;2022-09-23T08:13:31;153949.38;;;14.92;78.95
23059;BME280;30585;51.502;7.218;2022-09-23T08:16:01;153949.38;;;14.92;74.79
23059;BME280;30585;51.502;7.218;2022-09-23T08:18:29;153898.78;;;14.72;70.97
23059;BME280;30585;51.502;7.218;2022-09-23T08:20:57;153907.91;;;14.76;72.20
23059;BME280;30585;51.502;7.218;2022-09-23T08:23:25;153967.50;;;15.00;75.99
23059;BME280;30585;51.502;7.218;2022-09-23T08:25:56;153944.19;;;14.90;68.95
23059;BME280;30585;51.502;7.218;2022-09-23T08:28:25;153957.16;;;14.95;74.58
23059;BME280;30585;51.502;7.218;2022-09-23T08:30:53;153936.38;;;14.87;73.27
23059;BME280;30585;51.502;7.218;2022-09-23T08:33:23;153944.19;;;14.90;70.43
23059;BME280;30585;51.502;7.218;2022-09-23T08:35:51;153920.84;;;14.81;70.26
23059;BME280;30585;51.502;7.218;2022-09-23T08:38:19;153962.31;;;14.98;71.98
23059;BME280;30585;51.502;7.218;2022-09-23T08:40:48;153999.91;;;15.13;74.79
23059;BME280;30585;51.502;7.218;2022-09-23T08:43:21;153962.31;;;14.98;73.94
23059;BME280;30585;51.502;7.218;2022-09-23T08:45:52;153971.38;;;15.01;75.94
23059;BME280;30585;51.502;7.218;2022-09-23T08:48:27;154049.19;;;15.32;76.03
23059;BME280;30585;51.502;7.218;2022-09-23T08:51:01;154003.81;;;15.14;68.30
23059;BME280;30585;51.502;7.218;2022-09-23T08:53:32;153981.78;;;15.05;73.38
23059;BME280;30585;51.502;7.218;2022-09-23T08:56:03;154016.78;;;15.19;73.11
23059;BME280;30585;51.502;7.218;2022-09-23T08:58:47;154016.78;;;15.19;67.77
23059;BME280;30585;51.502;7.218;2022-09-23T09:01:22;154021.97;;;15.21;69.24
23059;BME280;30585;51.502;7.218;2022-09-23T09:03:55;154056.97;;;15.35;71.29
23059;BME280;30585;51.502;7.218;2022-09-23T09:06:27;154047.91;;;15.32;71.48
23059;BME280;30585;51.502;7.218;2022-09-23T09:08:59;154069.91;;;15.40;70.16
23059;BME280;30585;51.502;7.218;2022-09-23T09:11:33;154129.59;;;15.64;72.00
23059;BME280;30585;51.502;7.218;2022-09-23T09:14:15;154089.38;;;15.48;69.05
23059;BME280;30585;51.502;7.218;2022-09-23T09:17:00;154102.34;;;15.53;69.16
23059;BME280;30585;51.502;7.218;2022-09-23T09:19:41;154127.00;;;15.63;69.05
23059;BME280;30585;51.502;7.218;2022-09-23T09:22:19;154129.59;;;15.64;66.38
23059;BME280;30585;51.502;7.218;2022-09-23T09:24:52;154123.13;;;15.62;67.89
23059;BME280;30585;51.502;7.218;2022-09-23T09:27:24;154195.81;;;15.91;72.85
23059;BME280;30585;51.502;7.218;2022-09-23T09:29:52;154217.81;;;15.99;68.94
23059;BME280;30585;51.502;7.218;2022-09-23T09:32:30;154119.19;;;15.60;67.11
23059;BME280;30585;51.502;7.218;2022-09-23T09:35:10;154146.47;;;15.71;67.77
23059;BME280;30585;51.502;7.218;2022-09-23T09:37:46;154110.13;;;15.56;69.15
23059;BME280;30585;51.502;7.218;2022-09-23T09:40:14;154101.06;;;15.53;64.70
23059;BME280;30585;51.502;7.218;2022-09-23T09:42:46;154114.06;;;15.58;67.25
23059;BME280;30585;51.502;7.218;2022-09-23T09:45:17;154132.19;;;15.65;68.64
23059;BME280;30585;51.502;7.218;2022-09-23T09:47:55;154178.94;;;15.84;67.29
23059;BME280;30585;51.502;7.218;2022-09-23T09:50:44;154204.88;;;15.94;67.96
23059;BME280;30585;51.502;7.218;2022-09-23T09:53:20;154216.56;;;15.99;66.45
23059;BME280;30585;51.502;7.218;2022-09-23T09:55:58;154341.09;;;16.48;67.82
23059;BME280;30585;51.502;7.218;2022-09-23T09:58:33;154350.19;;;16.52;63.60
23059;BME280;30585;51.502;7.218;2022-09-23T10:01:18;154317.75;;;16.39;62.64
23059;BME280;30585;51.502;7.218;2022-09-23T10:03:46;154374.81;;;16.62;66.74
23059;BME280;30585;51.502;7.218;2022-09-23T10:06:22;154235.97;;;16.07;60.87
23059;BME280;30585;51.502;7.218;2022-09-23T10:09:10;154273.59;;;16.22;65.43
23059;BME280;30585;51.502;7.218;2022-09-23T10:11:39;154234.69;;;16.06;64.13
23059;BME280;30585;51.502;7.218;2022-09-23T10:14:13;154204.88;;;15.94;63.71
23059;BME280;30585;51.502;7.218;2022-09-23T10:16:44;154273.59;;;16.22;65.71
23059;BME280;30585;51.502;7.218;2022-09-23T10:19:23;154199.69;;;15.92;61.65
23059;BME280;30585;51.502;7.218;2022-09-23T10:21:54;154212.63;;;15.97;62.80
23059;BME280;30585;51.502;7.218;2022-09-23T10:24:28;154293.06;;;16.29;63.54
23059;BME280;30585;51.502;7.218;2022-09-23T10:26:59;154348.84;;;16.51;68.01
23059;BME280;30585;51.502;7.218;2022-09-23T10:29:31;154320.31;;;16.40;64.91
23059;BME280;30585;51.502;7.218;2022-09-23T10:32:18;154391.69;;;16.69;64.79
23059;BME280;30585;51.502;7.218;2022-09-23T10:34:49;154378.75;;;16.63;61.61
23059;BME280;30585;51.502;7.218;2022-09-23T10:37:24;154391.69;;;16.69;64.21
23059;BME280;30585;51.502;7.218;2022-09-23T10:39:54;154418.94;;;16.79;59.96
23059;BME280;30585;51.502;7.218;2022-09-23T10:42:51;154470.91;;;17.00;62.68
23059;BME280;30585;51.502;7.218;2022-09-23T10:45:38;154542.31;;;17.28;63.66
23059;BME280;30585;51.502;7.218;2022-09-23T10:48:30;154583.84;;;17.45;62.48
23059;BME280;30585;51.502;7.218;2022-09-23T10:51:06;154459.22;;;16.95;56.96
23059;BME280;30585;51.502;7.218;2022-09-23T10:53:52;154459.22;;;16.95;61.01
23059;BME280;30585;51.502;7.218;2022-09-23T10:56:31;154537.13;;;17.26;62.59
23059;BME280;30585;51.502;7.218;2022-09-23T10:59:20;154483.91;;;17.05;61.58
23059;BME280;30585;51.502;7.218;2022-09-23T11:02:03;154552.69;;;17.33;61.45
23059;BME280;30585;51.502;7.218;2022-09-23T11:04:55;154586.47;;;17.46;60.65
23059;BME280;30585;51.502;7.218;2022-09-23T11:07:35;154661.78;;;17.76;60.55
23059;BME280;30585;51.502;7.218;2022-09-23T11:10:30;154677.34;;;17.82;59.67
23059;BME280;30585;51.502;7.218;2022-09-23T11:13:22;154652.69;;;17.72;60.67
23059;BME280;30585;51.502;7.218;2022-09-23T11:15:58;154631.94;;;17.64;59.84
23059;BME280;30585;51.502;7.218;2022-09-23T11:18:43;154708.53;;;17.95;57.79
23059;BME280;30585;51.502;7.218;2022-09-23T11:24:42;154656.56;;;17.74;56.64
23059;BME280;30585;51.502;7.218;2022-09-23T11:27:29;154620.25;;;17.59;59.71
23059;BME280;30585;51.502;7.218;2022-09-23T11:30:06;154650.09;;;17.71;57.60
23059;BME280;30585;51.502;7.218;2022-09-23T11:33:06;154703.31;;;17.92;61.53
23059;BME280;30585;51.502;7.218;2022-09-23T11:35:42;154711.13;;;17.96;58.18
23059;BME280;30585;51.502;7.218;2022-09-23T11:38:17;154560.50;;;17.36;58.67
23059;BME280;30585;51.502;7.218;2022-09-23T11:40:54;154708.53;;;17.95;60.27
23059;BME280;30585;51.502;7.218;2022-09-23T11:43:24;154815.13;;;18.37;58.17
23059;BME280;30585;51.502;7.218;2022-09-23T11:45:57;154767.03;;;18.18;57.64
23059;BME280;30585;51.502;7.218;2022-09-23T11:48:32;154752.72;;;18.12;57.26
23059;BME280;30585;51.502;7.218;2022-09-23T11:51:05;154852.75;;;18.52;54.58
23059;BME280;30585;51.502;7.218;2022-09-23T11:53:41;154825.47;;;18.41;56.29
23059;BME280;30585;51.502;7.218;2022-09-23T11:56:15;154993.19;;;19.08;55.13
23059;BME280;30585;51.502;7.218;2022-09-23T11:59:07;154854.06;;;18.52;51.48
23059;BME280;30585;51.502;7.218;2022-09-23T12:01:43;154986.66;;;19.05;52.80
23059;BME280;30585;51.502;7.218;2022-09-23T12:04:18;154924.22;;;18.80;51.92
23059;BME280;30585;51.502;7.218;2022-09-23T12:06:55;154947.63;;;18.90;53.84
23059;BME280;30585;51.502;7.218;2022-09-23T12:09:31;155080.28;;;19.42;56.80
23059;BME280;30585;51.502;7.218;2022-09-23T12:12:26;155028.28;;;19.22;55.08
23059;BME280;30585;51.502;7.218;2022-09-23T12:15:01;154980.16;;;19.03;56.36
23059;BME280;30585;51.502;7.218;2022-09-23T12:18:02;154956.75;;;18.93;54.59
23059;BME280;30585;51.502;7.218;2022-09-23T12:20:50;154971.06;;;18.99;51.21
23059;BME280;30585;51.502;7.218;2022-09-23T12:23:37;155024.34;;;19.20;55.47
23059;BME280;30585;51.502;7.218;2022-09-23T12:26:14;154787.81;;;18.26;50.55
23059;BME280;30585;51.502;7.218;2022-09-23T12:28:45;154898.25;;;18.70;56.00
23059;BME280;30585;51.502;7.218;2022-09-23T12:31:17;154973.66;;;19.00;51.64
23059;BME280;30585;51.502;7.218;2022-09-23T12:33:48;155047.75;;;19.29;55.82
23059;BME280;30585;51.502;7.218;2022-09-23T12:36:24;154987.97;;;19.06;51.29
23059;BME280;30585;51.502;7.218;2022-09-23T12:39:00;155056.88;;;19.33;50.84
23059;BME280;30585;51.502;7.218;2022-09-23T12:41:32;155094.53;;;19.48;51.34
23059;BME280;30585;51.502;7.218;2022-09-23T12:44:13;155065.97;;;19.37;53.02
23059;BME280;30585;51.502;7.218;2022-09-23T12:46:44;155025.66;;;19.21;55.33
23059;BME280;30585;51.502;7.218;2022-09-23T12:49:22;155063.38;;;19.36;52.34
23059;BME280;30585;51.502;7.218;2022-09-23T12:52:12;155047.75;;;19.29;51.27
23059;BME280;30585;51.502;7.218;2022-09-23T12:54:43;155060.75;;;19.35;55.24
23059;BME280;30585;51.502;7.218;2022-09-23T12:57:11;155012.63;;;19.15;54.35
23059;BME280;30585;51.502;7.218;2022-09-23T12:59:55;154943.75;;;18.88;52.04
23059;BME280;30585;51.502;7.218;2022-09-23T13:02:30;154937.22;;;18.85;51.79
23059;BME280;30585;51.502;7.218;2022-09-23T13:05:11;154726.75;;;18.02;50.25
23059;BME280;30585;51.502;7.218;2022-09-23T13:08:02;154802.09;;;18.32;52.85
23059;BME280;30585;51.502;7.218;2022-09-23T13:10:35;154850.19;;;18.51;53.02
23059;BME280;30585;51.502;7.218;2022-09-23T13:13:05;154761.81;;;18.16;50.46
23059;BME280;30585;51.502;7.218;2022-09-23T13:15:34;154799.50;;;18.31;56.44
23059;BME280;30585;51.502;7.218;2022-09-23T13:18:23;154872.25;;;18.60;54.88
23059;BME280;30585;51.502;7.218;2022-09-23T13:21:16;154835.91;;;18.45;54.23
23059;BME280;30585;51.502;7.218;2022-09-23T13:24:16;154776.13;;;18.21;56.25
23059;BME280;30585;51.502;7.218;2022-09-23T13:26:45;154787.81;;;18.26;55.32